Overview Statistics Trail Chart Weather Telemetry Raw packets
 

This is the latest recevied weather packets stored in our database for station/object W0CHP-13. If no packets are shown the sender has not sent any weather packets the latest 10 day(s).

<< 25 26 27 28 29 30 31 >>
Time Temp. Humidity Pressure Rain* Wind** Luminosity Snow
1788317418 24.44° C 78% 1011.9 hPa 0 mm - 0 W/m² -
1788316816 24.44° C 78% 1011.9 hPa 0 mm - 0 W/m² -
1788316220 24.44° C 78% 1012 hPa 0 mm - 0 W/m² -
1788315617 24.44° C 79% 1012 hPa 0 mm - 0 W/m² -
1788315015 25° C 81% 1012 hPa 0 mm - 0 W/m² -
1788314417 25° C 81% 1012 hPa 0 mm - 0 W/m² -
1788313815 25° C 80% 1011.9 hPa 0 mm - 0 W/m² -
1788313216 25° C 78% 1012 hPa 0 mm - 0 W/m² -
1788312615 25.56° C 75% 1011.6 hPa 0 mm - 0 W/m² -
1788312017 26.11° C 68% 1011.6 hPa 0 mm - 0 W/m² -
1788311416 26.11° C 67% 1011.3 hPa 0 mm - 0 W/m² -
1788310815 26.67° C 68% 1011.3 hPa 0 mm - 0 W/m² -
1788310217 26.67° C 68% 1011.3 hPa 0 mm - 1 W/m² -
1788309615 26.67° C 68% 1011.3 hPa 0 mm - 1 W/m² -
1788309038 27.22° C 68% 1011.3 hPa 0 mm - 4 W/m² -
1788308417 27.22° C 68% 1011.3 hPa 0 mm - 3 W/m² -
1788307816 27.22° C 69% 1011.3 hPa 0 mm - 4 W/m² -
1788307217 27.78° C 67% 1011.3 hPa 0 mm - 8 W/m² -
1788306615 27.78° C 66% 1011.3 hPa 0 mm - 19 W/m² -
1788306017 27.78° C 68% 1011.6 hPa 0 mm - 22 W/m² -
1788305418 28.33° C 63% 1011 hPa 0 mm - 16 W/m² -
1788304816 28.33° C 57% 1010.6 hPa 0 mm - 12 W/m² -
1788304216 28.89° C 59% 1010.6 hPa 0 mm - 30 W/m² -
1788303615 28.89° C 61% 1011.3 hPa 0 mm - 42 W/m² -
1788303017 28.89° C 58% 1011.7 hPa 0 mm - 15 W/m² -

* Rain latest hour (hover to see other rain measurements)
** Current wind speed in m/s (hover to see current wind gust speed)